| time (UTC) | temp F | wind direction | speed MPH | gust MPH | rain 1hr in | rain 24hr in | rain mn in | humidity % | barometer mb |
| 20260507003524 | 71 | 301 | 5.0 | 9.0 | 0.00 | 0.00 | 0.00 | 57 | 1016.7 |
| 20260507003020 | 71 | 271 | 5.0 | 7.0 | 0.00 | 0.00 | 0.00 | 58 | 1016.8 |
| 20260507002516 | 72 | 247 | 5.0 | 8.0 | 0.00 | 0.00 | 0.00 | 56 | 1016.6 |
| 20260507002013 | 72 | 227 | 3.0 | 5.0 | 0.00 | 0.00 | 0.00 | 56 | 1016.7 |
| 20260507001509 | 73 | 240 | 5.0 | 6.0 | 0.00 | 0.00 | 0.00 | 55 | 1016.5 |
| 20260507001007 | 73 | 287 | 7.0 | 9.0 | 0.00 | 0.00 | 0.00 | 56 | 1016.7 |
| 20260507000503 | 73 | 275 | 7.0 | 9.0 | 0.00 | 0.00 | 0.00 | 54 | 1016.9 |
| 20260506235958 | 73 | 284 | 6.0 | 8.0 | 0.00 | 0.00 | 0.00 | 53 | 1016.5 |
| 20260506235456 | 73 | 288 | 5.0 | 7.0 | 0.00 | 0.00 | 0.00 | 52 | 1016.6 |
| 20260506234951 | 72 | 232 | 6.0 | 8.0 | 0.00 | 0.00 | 0.00 | 53 | 1016.6 |
| 20260506234449 | 74 | 320 | 9.0 | 9.0 | 0.00 | 0.00 | 0.00 | 52 | 1016.3 |
| 20260506233946 | 73 | 232 | 3.0 | 5.0 | 0.00 | 0.00 | 0.00 | 52 | 1016.5 |
| 20260506233443 | 73 | 238 | 4.0 | 6.0 | 0.00 | 0.00 | 0.00 | 52 | 1016.4 |
| 20260506232939 | 74 | 275 | 5.0 | 7.0 | 0.00 | 0.00 | 0.00 | 52 | 1016.6 |
| 20260506232436 | 73 | 265 | 6.0 | 9.0 | 0.00 | 0.00 | 0.00 | 52 | 1016.7 |
| 20260506231931 | 73 | 291 | 3.0 | 5.0 | 0.00 | 0.00 | 0.00 | 51 | 1016.7 |
| 20260506231429 | 73 | 232 | 8.0 | 10.0 | 0.00 | 0.00 | 0.00 | 51 | 1016.8 |
| 20260506230926 | 74 | 289 | 2.0 | 3.0 | 0.00 | 0.00 | 0.00 | 50 | 1016.8 |
| 20260506230422 | 73 | 282 | 6.0 | 8.0 | 0.00 | 0.00 | 0.00 | 51 | 1016.9 |
| 20260506225919 | 74 | 231 | 3.0 | 7.0 | 0.00 | 0.00 | 0.00 | 49 | 1017.0 |
| 20260506225417 | 73 | 241 | 5.0 | 7.0 | 0.00 | 0.00 | 0.00 | 50 | 1016.8 |
| 20260506224914 | 74 | 292 | 6.0 | 9.0 | 0.00 | 0.00 | 0.00 | 49 | 1016.9 |
| 20260506224411 | 73 | 262 | 2.0 | 3.0 | 0.00 | 0.00 | 0.00 | 49 | 1016.8 |
| 20260506223907 | 72 | 258 | 7.0 | 8.0 | 0.00 | 0.00 | 0.00 | 51 | 1017.0 |
| 20260506223402 | 73 | 289 | 7.0 | 8.0 | 0.00 | 0.00 | 0.00 | 49 | 1017.1 |
| 20260506222900 | 73 | 194 | 4.0 | 6.0 | 0.00 | 0.00 | 0.00 | 49 | 1017.2 |
| 20260506222356 | 73 | 241 | 4.0 | 5.0 | 0.00 | 0.00 | 0.00 | 50 | 1017.2 |
| 20260506221853 | 73 | 279 | 6.0 | 7.0 | 0.00 | 0.00 | 0.00 | 49 | 1017.4 |
| 20260506221350 | 72 | 280 | 7.0 | 8.0 | 0.00 | 0.00 | 0.00 | 49 | 1017.4 |
| 20260506220848 | 72 | 202 | 4.0 | 6.0 | 0.00 | 0.00 | 0.00 | 50 | 1017.3 |
| 20260506220343 | 73 | 298 | 5.0 | 7.0 | 0.00 | 0.00 | 0.00 | 50 | 1017.4 |
| 20260506215840 | 72 | 299 | 4.0 | 6.0 | 0.00 | 0.00 | 0.00 | 51 | 1017.4 |
| 20260506215336 | 72 | 320 | 0.0 | 1.0 | 0.00 | 0.00 | 0.00 | 52 | 1017.4 |
| 20260506214832 | 72 | 268 | 7.0 | 9.0 | 0.00 | 0.00 | 0.00 | 51 | 1017.6 |
| 20260506214329 | 71 | 255 | 5.0 | 7.0 | 0.00 | 0.00 | 0.00 | 51 | 1017.5 |
| 20260506213828 | 71 | 282 | 5.0 | 7.0 | 0.00 | 0.00 | 0.00 | 51 | 1017.6 |
| 20260506213324 | 71 | 311 | 2.0 | 5.0 | 0.00 | 0.00 | 0.00 | 51 | 1017.6 |
| 20260506212822 | 72 | 243 | 3.0 | 3.0 | 0.00 | 0.00 | 0.00 | 51 | 1017.8 |
| 20260506212317 | 72 | 286 | 3.0 | 5.0 | 0.00 | 0.00 | 0.00 | 53 | 1018.1 |
| 20260506211812 | 73 | 258 | 4.0 | 6.0 | 0.00 | 0.00 | 0.00 | 51 | 1017.9 |
| 20260506211309 | 71 | 212 | 5.0 | 6.0 | 0.00 | 0.00 | 0.00 | 50 | 1018.2 |
| 20260506210806 | 71 | 288 | 4.0 | 5.0 | 0.00 | 0.00 | 0.00 | 51 | 1017.9 |
| 20260506210257 | 71 | 270 | 3.0 | 6.0 | 0.00 | 0.00 | 0.00 | 51 | 1018.1 |
| 20260506205754 | 70 | 241 | 3.0 | 6.0 | 0.00 | 0.00 | 0.00 | 53 | 1018.2 |
| 20260506205250 | 71 | 173 | 3.0 | 6.0 | 0.00 | 0.00 | 0.00 | 51 | 1018.4 |
| 20260506204747 | 71 | 242 | 6.0 | 8.0 | 0.00 | 0.00 | 0.00 | 50 | 1018.5 |
| 20260506204245 | 71 | 332 | 4.0 | 6.0 | 0.00 | 0.00 | 0.00 | 50 | 1018.5 |
| 20260506203742 | 71 | 335 | 0.0 | 0.0 | 0.00 | 0.00 | 0.00 | 54 | 1018.4 |
| 20260506203239 | 70 | 293 | 4.0 | 6.0 | 0.00 | 0.00 | 0.00 | 52 | 1018.5 |
| 20260506202736 | 70 | 329 | 3.0 | 3.0 | 0.00 | 0.00 | 0.00 | 52 | 1018.6 |
| 20260506202233 | 70 | 198 | 6.0 | 7.0 | 0.00 | 0.00 | 0.00 | 50 | 1018.6 |
| 20260506201730 | 69 | 256 | 2.0 | 2.0 | 0.00 | 0.00 | 0.00 | 52 | 1018.6 |
| 20260506201227 | 69 | 308 | 1.0 | 1.0 | 0.00 | 0.00 | 0.00 | 52 | 1018.8 |
| 20260506200723 | 69 | 160 | 2.0 | 3.0 | 0.00 | 0.00 | 0.00 | 51 | 1018.6 |
| 20260506200220 | 70 | 187 | 3.0 | 6.0 | 0.00 | 0.00 | 0.00 | 51 | 1018.8 |
| 20260506195716 | 69 | 282 | 3.0 | 5.0 | 0.00 | 0.00 | 0.00 | 52 | 1018.8 |
| 20260506195213 | 67 | 303 | 2.0 | 2.0 | 0.00 | 0.00 | 0.00 | 55 | 1019.0 |
| 20260506194710 | 67 | 297 | 4.0 | 5.0 | 0.00 | 0.00 | 0.00 | 55 | 1018.9 |
| 20260506194206 | 68 | 137 | 3.0 | 3.0 | 0.00 | 0.00 | 0.00 | 53 | 1018.9 |
| 20260506193659 | 67 | 284 | 3.0 | 5.0 | 0.00 | 0.00 | 0.00 | 54 | 1019.0 |
| 20260506193155 | 67 | 281 | 2.0 | 3.0 | 0.00 | 0.00 | 0.00 | 55 | 1019.1 |
| 20260506192652 | 66 | 201 | 4.0 | 6.0 | 0.00 | 0.00 | 0.00 | 56 | 1018.9 |
| 20260506192148 | 67 | 288 | 3.0 | 6.0 | 0.00 | 0.00 | 0.00 | 55 | 1019.2 |
| 20260506191646 | 67 | 264 | 5.0 | 6.0 | 0.00 | 0.00 | 0.00 | 55 | 1019.4 |
| 20260506191141 | 66 | 172 | 4.0 | 5.0 | 0.00 | 0.00 | 0.00 | 56 | 1019.3 |
| 20260506190639 | 66 | 217 | 2.0 | 3.0 | 0.00 | 0.00 | 0.00 | 57 | 1019.1 |
| 20260506190135 | 67 | 260 | 4.0 | 5.0 | 0.00 | 0.00 | 0.00 | 58 | 1019.3 |
| 20260506185633 | 66 | 303 | 1.0 | 1.0 | 0.00 | 0.00 | 0.00 | 57 | 1019.4 |
| 20260506185129 | 64 | 315 | 0.0 | 1.0 | 0.00 | 0.00 | 0.00 | 61 | 1019.6 |
| 20260506184626 | 66 | 252 | 5.0 | 7.0 | 0.00 | 0.00 | 0.00 | 57 | 1019.6 |
| 20260506184124 | 64 | 317 | 0.0 | 1.0 | 0.00 | 0.00 | 0.00 | 59 | 1019.7 |
| 20260506183620 | 64 | 208 | 2.0 | 3.0 | 0.00 | 0.00 | 0.00 | 61 | 1019.7 |
| 20260506183116 | 65 | 311 | 1.0 | 1.0 | 0.00 | 0.00 | 0.00 | 60 | 1019.6 |
| 20260506182614 | 63 | 312 | 0.0 | 1.0 | 0.00 | 0.00 | 0.00 | 62 | 1020.1 |
| 20260506182111 | 63 | 82 | 4.0 | 6.0 | 0.00 | 0.00 | 0.00 | 64 | 1019.6 |
| 20260506181609 | 65 | 206 | 5.0 | 7.0 | 0.00 | 0.00 | 0.00 | 59 | 1019.8 |
| 20260506181105 | 64 | 347 | 0.0 | 1.0 | 0.00 | 0.00 | 0.00 | 63 | 1019.8 |
| 20260506180602 | 63 | 327 | 2.0 | 3.0 | 0.00 | 0.00 | 0.00 | 62 | 1019.7 |
| 20260506180059 | 63 | 90 | 1.0 | 2.0 | 0.00 | 0.00 | 0.00 | 62 | 1020.1 |
| 20260506175555 | 63 | 317 | 0.0 | 0.0 | 0.00 | 0.00 | 0.00 | 60 | 1020.0 |
| 20260506175051 | 62 | 306 | 2.0 | 3.0 | 0.00 | 0.00 | 0.00 | 64 | 1019.7 |
| 20260506174550 | 62 | 298 | 2.0 | 2.0 | 0.00 | 0.00 | 0.00 | 67 | 1019.7 |
| 20260506174045 | 62 | 293 | 1.0 | 1.0 | 0.00 | 0.00 | 0.00 | 65 | 1019.5 |
| 20260506173544 | 62 | 242 | 4.0 | 5.0 | 0.00 | 0.00 | 0.00 | 63 | 1019.7 |
| 20260506173040 | 61 | 245 | 2.0 | 2.0 | 0.00 | 0.00 | 0.00 | 64 | 1019.7 |
| 20260506172538 | 61 | 275 | 2.0 | 3.0 | 0.00 | 0.00 | 0.00 | 65 | 1019.6 |
| 20260506172034 | 61 | 208 | 6.0 | 7.0 | 0.00 | 0.00 | 0.00 | 65 | 1019.7 |
| 20260506171531 | 62 | 312 | 1.0 | 1.0 | 0.00 | 0.00 | 0.00 | 63 | 1019.6 |
| 20260506171029 | 61 | 208 | 3.0 | 5.0 | 0.00 | 0.00 | 0.00 | 65 | 1019.6 |
| 20260506170526 | 60 | 318 | 1.0 | 1.0 | 0.00 | 0.00 | 0.00 | 65 | 1019.6 |
| 20260506170023 | 61 | 75 | 1.0 | 2.0 | 0.00 | 0.00 | 0.00 | 65 | 1020.0 |
| 20260506165521 | 61 | 60 | 1.0 | 2.0 | 0.00 | 0.00 | 0.00 | 65 | 1019.6 |
| 20260506165012 | 60 | 71 | 1.0 | 2.0 | 0.00 | 0.00 | 0.00 | 68 | 1019.5 |
| 20260506164509 | 59 | 298 | 1.0 | 1.0 | 0.00 | 0.00 | 0.00 | 66 | 1019.7 |
| 20260506164007 | 59 | 179 | 3.0 | 3.0 | 0.00 | 0.00 | 0.00 | 66 | 1019.6 |
| 20260506163502 | 59 | 201 | 3.0 | 3.0 | 0.00 | 0.00 | 0.00 | 65 | 1019.6 |
| 20260506162956 | 59 | 299 | 1.0 | 2.0 | 0.00 | 0.00 | 0.00 | 67 | 1019.7 |
| 20260506162454 | 59 | 244 | 3.0 | 3.0 | 0.00 | 0.00 | 0.00 | 68 | 1019.7 |
| 20260506161951 | 59 | 258 | 2.0 | 2.0 | 0.00 | 0.00 | 0.00 | 68 | 1019.6 |
| 20260506161449 | 58 | 299 | 1.0 | 1.0 | 0.00 | 0.00 | 0.00 | 68 | 1019.6 |
| 20260506160946 | 58 | 316 | 0.0 | 0.0 | 0.00 | 0.00 | 0.00 | 68 | 1019.8 |
| 20260506160443 | 57 | 318 | 0.0 | 1.0 | 0.00 | 0.00 | 0.00 | 68 | 1019.5 |
| 20260506155941 | 57 | 284 | 2.0 | 2.0 | 0.00 | 0.00 | 0.00 | 70 | 1019.4 |
| 20260506155438 | 58 | 307 | 1.0 | 1.0 | 0.00 | 0.00 | 0.00 | 68 | 1019.6 |
| 20260506153605 | 57 | 311 | 1.0 | 2.0 | 0.00 | 0.00 | 0.00 | 70 | 1019.6 |
| 20260506153102 | 56 | 311 | 0.0 | 1.0 | 0.00 | 0.00 | 0.00 | 71 | 1019.6 |
| 20260506152559 | 56 | 279 | 1.0 | 2.0 | 0.00 | 0.00 | 0.00 | 71 | 1019.7 |
| 20260506152057 | 56 | 230 | 2.0 | 2.0 | 0.00 | 0.00 | 0.00 | 70 | 1019.4 |
| 20260506151555 | 56 | 284 | 3.0 | 3.0 | 0.00 | 0.00 | 0.00 | 70 | 1019.7 |
| 20260506151052 | 57 | 277 | 2.0 | 2.0 | 0.00 | 0.00 | 0.00 | 70 | 1019.5 |
| 20260506150548 | 55 | 312 | 0.0 | 0.0 | 0.00 | 0.00 | 0.00 | 68 | 1019.7 |
| 20260506150045 | 55 | 289 | 1.0 | 2.0 | 0.00 | 0.00 | 0.00 | 72 | 1019.7 |
| 20260506145542 | 56 | 328 | 0.0 | 0.0 | 0.00 | 0.00 | 0.00 | 71 | 1019.8 |
| 20260506145040 | 57 | 301 | 1.0 | 1.0 | 0.00 | 0.00 | 0.00 | 70 | 1019.6 |
| 20260506144536 | 58 | 331 | 0.0 | 1.0 | 0.00 | 0.00 | 0.00 | 68 | 1019.5 |
| 20260506144033 | 56 | 322 | 0.0 | 0.0 | 0.00 | 0.00 | 0.00 | 71 | 1019.6 |
| 20260506143531 | 58 | 306 | 1.0 | 1.0 | 0.00 | 0.00 | 0.00 | 68 | 1019.5 |
| 20260506143029 | 61 | 344 | 0.0 | 0.0 | 0.00 | 0.00 | 0.00 | 67 | 1019.3 |
| 20260506142527 | 60 | 344 | 0.0 | 0.0 | 0.00 | 0.00 | 0.00 | 67 | 1019.6 |
| 20260506142025 | 58 | 344 | 0.0 | 0.0 | 0.00 | 0.00 | 0.00 | 70 | 1019.2 |
| 20260506141522 | 60 | 344 | 0.0 | 0.0 | 0.00 | 0.00 | 0.00 | 67 | 1019.4 |
| 20260506141020 | 59 | 344 | 0.0 | 0.0 | 0.00 | 0.00 | 0.00 | 69 | 1019.4 |
| 20260506140517 | 57 | 344 | 0.0 | 0.0 | 0.00 | 0.00 | 0.00 | 72 | 1019.5 |
| 20260506140015 | 55 | 344 | 0.0 | 0.0 | 0.00 | 0.00 | 0.00 | 75 | 1019.3 |
| 20260506135511 | 53 | 344 | 0.0 | 1.0 | 0.00 | 0.00 | 0.00 | 76 | 1019.5 |
| 20260506135008 | 52 | 341 | 0.0 | 0.0 | 0.00 | 0.00 | 0.00 | 80 | 1019.6 |
| 20260506134504 | 51 | 341 | 0.0 | 0.0 | 0.00 | 0.00 | 0.00 | 80 | 1019.3 |
| 20260506134000 | 50 | 341 | 0.0 | 1.0 | 0.00 | 0.00 | 0.00 | 82 | 1019.3 |
| 20260506133457 | 49 | 340 | 0.0 | 0.0 | 0.00 | 0.00 | 0.00 | 84 | 1019.2 |
| 20260506132954 | 48 | 338 | 0.0 | 0.0 | 0.00 | 0.00 | 0.00 | 87 | 1019.0 |
| 20260506132451 | 47 | 336 | 0.0 | 1.0 | 0.00 | 0.00 | 0.00 | 90 | 1019.0 |
| 20260506131948 | 46 | 336 | 0.0 | 0.0 | 0.00 | 0.00 | 0.00 | 91 | 1019.1 |
| 20260506131445 | 46 | 323 | 1.0 | 1.0 | 0.00 | 0.00 | 0.00 | 91 | 1019.0 |
| 20260506130942 | 45 | 322 | 1.0 | 1.0 | 0.00 | 0.00 | 0.00 | 92 | 1019.0 |
| 20260506130439 | 45 | 326 | 1.0 | 1.0 | 0.00 | 0.00 | 0.00 | 92 | 1018.7 |
| 20260506125936 | 45 | 321 | 1.0 | 1.0 | 0.00 | 0.00 | 0.00 | 92 | 1018.6 |
| 20260506125434 | 45 | 322 | 1.0 | 1.0 | 0.00 | 0.00 | 0.00 | 92 | 1018.8 |
| 20260506124932 | 45 | 324 | 1.0 | 1.0 | 0.00 | 0.00 | 0.00 | 93 | 1018.7 |
| 20260506124430 | 45 | 335 | 1.0 | 1.0 | 0.00 | 0.00 | 0.00 | 93 | 1018.9 |
| 20260506123927 | 45 | 335 | 0.0 | 0.0 | 0.00 | 0.00 | 0.00 | 93 | 1018.7 |
| 20260506123425 | 45 | 333 | 0.0 | 0.0 | 0.00 | 0.00 | 0.00 | 93 | 1018.6 |
| 20260506122922 | 46 | 333 | 0.0 | 1.0 | 0.00 | 0.00 | 0.00 | 93 | 1018.6 |
| 20260506122419 | 46 | 325 | 0.0 | 0.0 | 0.00 | 0.00 | 0.00 | 93 | 1018.7 |
| 20260506121918 | 46 | 323 | 1.0 | 1.0 | 0.00 | 0.00 | 0.00 | 93 | 1018.8 |
| 20260506121414 | 46 | 337 | 0.0 | 0.0 | 0.00 | 0.00 | 0.00 | 92 | 1018.7 |
| 20260506120911 | 46 | 337 | 0.0 | 0.0 | 0.00 | 0.00 | 0.00 | 92 | 1018.6 |
| 20260506120409 | 46 | 337 | 0.0 | 0.0 | 0.00 | 0.00 | 0.00 | 92 | 1018.7 |
| 20260506115906 | 46 | 339 | 1.0 | 1.0 | 0.00 | 0.00 | 0.00 | 91 | 1018.7 |
| 20260506115404 | 46 | 342 | 1.0 | 1.0 | 0.00 | 0.00 | 0.00 | 91 | 1018.6 |
| 20260506114902 | 46 | 341 | 1.0 | 2.0 | 0.00 | 0.00 | 0.00 | 91 | 1018.6 |
| 20260506114359 | 46 | 343 | 1.0 | 2.0 | 0.00 | 0.00 | 0.00 | 91 | 1018.9 |
| 20260506113858 | 46 | 343 | 1.0 | 2.0 | 0.00 | 0.00 | 0.00 | 91 | 1018.6 |
| 20260506113355 | 46 | 342 | 1.0 | 2.0 | 0.00 | 0.00 | 0.00 | 92 | 1018.6 |
| 20260506112851 | 46 | 338 | 0.0 | 0.0 | 0.00 | 0.00 | 0.00 | 91 | 1018.6 |
| 20260506112348 | 46 | 337 | 0.0 | 0.0 | 0.00 | 0.00 | 0.00 | 91 | 1018.6 |
| 20260506111846 | 46 | 344 | 1.0 | 2.0 | 0.00 | 0.00 | 0.00 | 91 | 1018.5 |
| 20260506111344 | 46 | 345 | 1.0 | 2.0 | 0.00 | 0.00 | 0.00 | 91 | 1018.6 |
| 20260506110841 | 46 | 342 | 1.0 | 1.0 | 0.00 | 0.00 | 0.00 | 91 | 1018.4 |
| 20260506110338 | 46 | 346 | 1.0 | 2.0 | 0.00 | 0.00 | 0.00 | 91 | 1018.5 |
| 20260506105835 | 46 | 344 | 1.0 | 2.0 | 0.00 | 0.00 | 0.00 | 91 | 1018.4 |
| 20260506105331 | 46 | 345 | 1.0 | 1.0 | 0.00 | 0.00 | 0.00 | 90 | 1018.7 |
| 20260506104829 | 46 | 346 | 2.0 | 2.0 | 0.00 | 0.00 | 0.00 | 90 | 1018.6 |
| 20260506104327 | 46 | 348 | 1.0 | 1.0 | 0.00 | 0.00 | 0.00 | 90 | 1018.5 |
| 20260506103824 | 46 | 358 | 1.0 | 2.0 | 0.00 | 0.00 | 0.00 | 90 | 1018.5 |
| 20260506103321 | 46 | 344 | 1.0 | 1.0 | 0.00 | 0.00 | 0.00 | 91 | 1018.5 |
| 20260506102819 | 46 | 341 | 1.0 | 1.0 | 0.00 | 0.00 | 0.00 | 91 | 1018.4 |
| 20260506102317 | 46 | 340 | 1.0 | 1.0 | 0.00 | 0.00 | 0.00 | 91 | 1018.7 |
| 20260506101814 | 46 | 340 | 0.0 | 0.0 | 0.00 | 0.00 | 0.00 | 91 | 1018.7 |
| 20260506101309 | 46 | 341 | 1.0 | 1.0 | 0.00 | 0.00 | 0.00 | 90 | 1018.5 |
| 20260506100808 | 46 | 335 | 1.0 | 2.0 | 0.00 | 0.00 | 0.00 | 90 | 1018.5 |
| 20260506100306 | 46 | 344 | 1.0 | 2.0 | 0.00 | 0.00 | 0.00 | 91 | 1018.4 |
| 20260506095804 | 46 | 333 | 1.0 | 1.0 | 0.00 | 0.00 | 0.00 | 91 | 1018.6 |
| 20260506095300 | 46 | 332 | 1.0 | 1.0 | 0.00 | 0.00 | 0.00 | 91 | 1018.7 |
| 20260506094757 | 46 | 322 | 1.0 | 1.0 | 0.00 | 0.00 | 0.00 | 91 | 1018.6 |
| 20260506094256 | 46 | 325 | 1.0 | 2.0 | 0.00 | 0.00 | 0.00 | 91 | 1018.7 |
| 20260506093754 | 46 | 326 | 0.0 | 1.0 | 0.00 | 0.00 | 0.00 | 90 | 1018.5 |
| 20260506093250 | 46 | 318 | 3.0 | 3.0 | 0.00 | 0.00 | 0.00 | 91 | 1018.3 |
| 20260506092749 | 46 | 322 | 1.0 | 2.0 | 0.00 | 0.00 | 0.00 | 91 | 1018.5 |
| 20260506092246 | 46 | 325 | 0.0 | 1.0 | 0.00 | 0.00 | 0.00 | 91 | 1018.5 |
| 20260506091743 | 46 | 325 | 1.0 | 1.0 | 0.00 | 0.00 | 0.00 | 91 | 1018.5 |
| 20260506091240 | 46 | 327 | 1.0 | 2.0 | 0.00 | 0.00 | 0.00 | 91 | 1018.6 |
| 20260506090738 | 46 | 323 | 2.0 | 2.0 | 0.00 | 0.00 | 0.00 | 92 | 1018.7 |
| 20260506090235 | 46 | 326 | 0.0 | 1.0 | 0.00 | 0.00 | 0.00 | 91 | 1018.5 |
| 20260506085732 | 47 | 326 | 0.0 | 1.0 | 0.00 | 0.00 | 0.00 | 91 | 1018.6 |
| 20260506085228 | 47 | 329 | 1.0 | 1.0 | 0.00 | 0.00 | 0.00 | 91 | 1018.6 |
| 20260506084725 | 47 | 338 | 0.0 | 1.0 | 0.00 | 0.00 | 0.00 | 90 | 1018.6 |
| 20260506084221 | 47 | 335 | 0.0 | 0.0 | 0.00 | 0.00 | 0.00 | 91 | 1018.9 |
| 20260506083718 | 47 | 325 | 0.0 | 1.0 | 0.00 | 0.00 | 0.00 | 90 | 1018.9 |
| 20260506083216 | 47 | 321 | 1.0 | 2.0 | 0.00 | 0.00 | 0.00 | 90 | 1018.8 |
| 20260506082713 | 47 | 317 | 1.0 | 2.0 | 0.00 | 0.00 | 0.00 | 91 | 1018.6 |
| 20260506082209 | 47 | 322 | 2.0 | 2.0 | 0.00 | 0.00 | 0.00 | 91 | 1018.8 |
| 20260506081706 | 47 | 320 | 2.0 | 2.0 | 0.00 | 0.00 | 0.00 | 91 | 1018.9 |
| 20260506081204 | 47 | 321 | 1.0 | 2.0 | 0.00 | 0.00 | 0.00 | 90 | 1018.9 |
| 20260506080702 | 47 | 318 | 1.0 | 1.0 | 0.00 | 0.00 | 0.00 | 90 | 1019.0 |
| 20260506080158 | 47 | 319 | 1.0 | 1.0 | 0.00 | 0.00 | 0.00 | 90 | 1018.9 |
| 20260506073142 | 48 | 323 | 0.0 | 1.0 | 0.00 | 0.00 | 0.00 | 90 | 1019.0 |
| 20260506072638 | 48 | 326 | 1.0 | 1.0 | 0.00 | 0.00 | 0.00 | 90 | 1018.9 |
| 20260506072136 | 48 | 327 | 0.0 | 0.0 | 0.00 | 0.00 | 0.00 | 89 | 1019.0 |
| 20260506071634 | 48 | 325 | 0.0 | 0.0 | 0.00 | 0.00 | 0.00 | 89 | 1018.8 |
| 20260506071131 | 48 | 325 | 0.0 | 0.0 | 0.00 | 0.00 | 0.00 | 89 | 1019.1 |
| 20260506070628 | 48 | 323 | 1.0 | 1.0 | 0.00 | 0.00 | 0.00 | 88 | 1018.9 |
| 20260506070125 | 49 | 326 | 0.0 | 0.0 | 0.00 | 0.10 | 0.10 | 87 | 1018.8 |
| 20260506062103 | 50 | 348 | 2.0 | 2.0 | 0.00 | 0.10 | 0.10 | 86 | 1018.7 |
| 20260506061558 | 49 | 339 | 1.0 | 1.0 | 0.00 | 0.10 | 0.10 | 86 | 1018.5 |
| 20260506061056 | 49 | 330 | 1.0 | 2.0 | 0.00 | 0.10 | 0.10 | 87 | 1018.4 |
| 20260506060555 | 49 | 337 | 0.0 | 1.0 | 0.00 | 0.10 | 0.10 | 86 | 1018.2 |
| 20260506051024 | 51 | 320 | 0.0 | 0.0 | 0.00 | 0.10 | 0.10 | 81 | 1017.8 |
| 20260506050521 | 52 | 315 | 1.0 | 2.0 | 0.00 | 0.10 | 0.10 | 80 | 1018.1 |
| 20260506045011 | 51 | 328 | 0.0 | 1.0 | 0.00 | 0.10 | 0.10 | 83 | 1017.6 |
| 20260506044510 | 50 | 326 | 0.0 | 0.0 | 0.00 | 0.10 | 0.10 | 84 | 1017.5 |
| 20260506044006 | 50 | 324 | 0.0 | 0.0 | 0.00 | 0.10 | 0.10 | 84 | 1017.5 |
| 20260506043503 | 50 | 321 | 0.0 | 0.0 | 0.00 | 0.10 | 0.10 | 84 | 1017.6 |
| 20260506043001 | 50 | 321 | 1.0 | 2.0 | 0.00 | 0.10 | 0.10 | 84 | 1017.6 |
| 20260506042500 | 50 | 329 | 0.0 | 0.0 | 0.00 | 0.10 | 0.10 | 84 | 1017.3 |
| 20260506041957 | 50 | 330 | 1.0 | 1.0 | 0.00 | 0.10 | 0.10 | 84 | 1017.3 |
| 20260506041456 | 51 | 331 | 0.0 | 1.0 | 0.00 | 0.10 | 0.10 | 83 | 1017.5 |
| 20260506040953 | 51 | 330 | 0.0 | 0.0 | 0.00 | 0.10 | 0.10 | 83 | 1017.2 |
| 20260506040450 | 51 | 330 | 0.0 | 0.0 | 0.00 | 0.10 | 0.10 | 84 | 1017.0 |
| 20260506035946 | 51 | 330 | 0.0 | 0.0 | 0.00 | 0.10 | 0.10 | 82 | 1017.2 |
| 20260506035443 | 51 | 330 | 0.0 | 0.0 | 0.00 | 0.10 | 0.10 | 83 | 1017.2 |
| 20260506034940 | 51 | 330 | 0.0 | 1.0 | 0.00 | 0.10 | 0.10 | 82 | 1016.8 |
| 20260506034438 | 52 | 329 | 0.0 | 0.0 | 0.00 | 0.10 | 0.10 | 81 | 1016.7 |
| 20260506033934 | 51 | 338 | 0.0 | 1.0 | 0.00 | 0.10 | 0.10 | 82 | 1016.7 |
| 20260506033432 | 52 | 336 | 0.0 | 1.0 | 0.00 | 0.10 | 0.10 | 81 | 1016.8 |
| 20260506032928 | 52 | 338 | 1.0 | 1.0 | 0.00 | 0.10 | 0.10 | 81 | 1016.7 |
| 20260506032425 | 52 | 335 | 0.0 | 0.0 | 0.00 | 0.10 | 0.10 | 81 | 1016.4 |
| 20260506031922 | 52 | 329 | 0.0 | 0.0 | 0.00 | 0.10 | 0.10 | 81 | 1016.6 |
| 20260506031419 | 53 | 325 | 0.0 | 1.0 | 0.00 | 0.10 | 0.10 | 79 | 1016.3 |
| 20260506030917 | 53 | 329 | 0.0 | 0.0 | 0.00 | 0.10 | 0.10 | 79 | 1016.2 |
| 20260506030415 | 52 | 333 | 0.0 | 0.0 | 0.00 | 0.10 | 0.10 | 79 | 1016.2 |
| 20260506025911 | 53 | 333 | 0.0 | 0.0 | 0.00 | 0.10 | 0.10 | 79 | 1016.0 |
| 20260506025408 | 53 | 333 | 0.0 | 0.0 | 0.00 | 0.10 | 0.10 | 78 | 1015.9 |
| 20260506024905 | 54 | 333 | 0.0 | 1.0 | 0.00 | 0.10 | 0.10 | 75 | 1015.8 |
| 20260506024402 | 55 | 330 | 0.0 | 0.0 | 0.00 | 0.10 | 0.10 | 72 | 1015.9 |
| 20260506023858 | 55 | 315 | 1.0 | 1.0 | 0.00 | 0.10 | 0.10 | 69 | 1015.8 |
| 20260506023355 | 56 | 282 | 1.0 | 2.0 | 0.00 | 0.10 | 0.10 | 69 | 1015.7 |
| 20260506022851 | 56 | 299 | 3.0 | 3.0 | 0.00 | 0.10 | 0.10 | 68 | 1015.7 |
| 20260506022349 | 56 | 315 | 1.0 | 2.0 | 0.00 | 0.10 | 0.10 | 67 | 1015.5 |
| 20260506021847 | 56 | 273 | 3.0 | 5.0 | 0.00 | 0.10 | 0.10 | 67 | 1015.4 |
| 20260506021344 | 57 | 327 | 2.0 | 2.0 | 0.00 | 0.10 | 0.10 | 67 | 1015.3 |
| 20260506020840 | 57 | 319 | 5.0 | 6.0 | 0.00 | 0.10 | 0.10 | 67 | 1015.3 |
| 20260506020338 | 57 | 283 | 5.0 | 6.0 | 0.00 | 0.10 | 0.10 | 67 | 1015.3 |
| 20260506015836 | 57 | 277 | 7.0 | 9.0 | 0.00 | 0.10 | 0.10 | 67 | 1015.3 |
| 20260506015333 | 57 | 301 | 3.0 | 3.0 | 0.00 | 0.10 | 0.10 | 67 | 1015.3 |
| 20260506014830 | 57 | 277 | 4.0 | 5.0 | 0.00 | 0.10 | 0.10 | 67 | 1015.2 |
| 20260506014326 | 57 | 325 | 3.0 | 3.0 | 0.00 | 0.10 | 0.10 | 67 | 1015.2 |
| 20260506013823 | 57 | 263 | 5.0 | 6.0 | 0.00 | 0.10 | 0.10 | 66 | 1015.1 |
| 20260506013320 | 57 | 270 | 3.0 | 3.0 | 0.00 | 0.10 | 0.10 | 67 | 1015.2 |
| 20260506012817 | 58 | 304 | 5.0 | 5.0 | 0.00 | 0.10 | 0.10 | 66 | 1015.1 |
| 20260506012314 | 59 | 289 | 3.0 | 3.0 | 0.00 | 0.10 | 0.10 | 66 | 1014.9 |
| 20260506011811 | 58 | 279 | 4.0 | 6.0 | 0.00 | 0.10 | 0.10 | 65 | 1015.1 |
| 20260506011308 | 59 | 296 | 3.0 | 5.0 | 0.00 | 0.10 | 0.10 | 64 | 1014.8 |
| 20260506010806 | 59 | 315 | 7.0 | 8.0 | 0.00 | 0.10 | 0.10 | 63 | 1014.8 |
| 20260506010303 | 59 | 327 | 3.0 | 5.0 | 0.00 | 0.10 | 0.10 | 64 | 1015.0 |
| 20260506005800 | 59 | 335 | 5.0 | 7.0 | 0.00 | 0.10 | 0.10 | 65 | 1014.9 |
| 20260506005257 | 59 | 296 | 4.0 | 5.0 | 0.00 | 0.10 | 0.10 | 65 | 1014.9 |
| 20260506004753 | 60 | 269 | 7.0 | 9.0 | 0.00 | 0.10 | 0.10 | 63 | 1015.0 |
| 20260506004251 | 58 | 297 | 3.0 | 3.0 | 0.00 | 0.10 | 0.10 | 66 | 1015.0 |
| 20260506003746 | 58 | 279 | 3.0 | 5.0 | 0.00 | 0.10 | 0.10 | 67 | 1015.0 |